sensor_id;sensor_type;location;lat;lon;timestamp;P1;durP1;ratioP1;P2;durP2;ratioP2
1925;SDS011;964;42.606;23.588;2022-10-16T00:00:06;6.63;;;5.20;;
1925;SDS011;964;42.606;23.588;2022-10-16T00:02:34;7.73;;;4.67;;
1925;SDS011;964;42.606;23.588;2022-10-16T00:05:00;8.47;;;5.50;;
1925;SDS011;964;42.606;23.588;2022-10-16T00:07:28;9.60;;;5.07;;
1925;SDS011;964;42.606;23.588;2022-10-16T00:09:54;6.50;;;5.27;;
1925;SDS011;964;42.606;23.588;2022-10-16T00:12:21;8.87;;;4.43;;
1925;SDS011;964;42.606;23.588;2022-10-16T00:14:50;7.83;;;5.00;;
1925;SDS011;964;42.606;23.588;2022-10-16T00:17:17;7.67;;;4.90;;
1925;SDS011;964;42.606;23.588;2022-10-16T00:19:43;7.53;;;4.97;;
1925;SDS011;964;42.606;23.588;2022-10-16T00:22:10;6.47;;;5.43;;
1925;SDS011;964;42.606;23.588;2022-10-16T00:24:37;8.37;;;4.80;;
1925;SDS011;964;42.606;23.588;2022-10-16T00:27:04;7.63;;;5.73;;
1925;SDS011;964;42.606;23.588;2022-10-16T00:29:31;7.00;;;5.23;;
1925;SDS011;964;42.606;23.588;2022-10-16T00:31:59;6.10;;;5.10;;
1925;SDS011;964;42.606;23.588;2022-10-16T00:34:26;7.97;;;5.50;;
1925;SDS011;964;42.606;23.588;2022-10-16T00:36:53;6.23;;;5.13;;
1925;SDS011;964;42.606;23.588;2022-10-16T00:39:20;7.53;;;5.10;;
1925;SDS011;964;42.606;23.588;2022-10-16T00:41:47;8.80;;;6.03;;
1925;SDS011;964;42.606;23.588;2022-10-16T00:47:13;9.30;;;4.60;;
1925;SDS011;964;42.606;23.588;2022-10-16T00:49:44;6.83;;;5.20;;
1925;SDS011;964;42.606;23.588;2022-10-16T00:52:12;6.73;;;5.33;;
1925;SDS011;964;42.606;23.588;2022-10-16T00:54:40;6.43;;;5.00;;
1925;SDS011;964;42.606;23.588;2022-10-16T00:57:07;8.93;;;5.80;;
1925;SDS011;964;42.606;23.588;2022-10-16T00:59:35;8.20;;;6.13;;
1925;SDS011;964;42.606;23.588;2022-10-16T01:02:04;8.00;;;5.90;;
1925;SDS011;964;42.606;23.588;2022-10-16T01:04:35;11.43;;;6.30;;
1925;SDS011;964;42.606;23.588;2022-10-16T01:07:06;6.77;;;5.67;;
1925;SDS011;964;42.606;23.588;2022-10-16T01:09:44;7.53;;;5.17;;
1925;SDS011;964;42.606;23.588;2022-10-16T01:12:19;7.97;;;5.70;;
1925;SDS011;964;42.606;23.588;2022-10-16T01:14:56;9.47;;;7.20;;
1925;SDS011;964;42.606;23.588;2022-10-16T01:17:31;13.27;;;7.10;;
1925;SDS011;964;42.606;23.588;2022-10-16T01:20:07;9.90;;;6.77;;
1925;SDS011;964;42.606;23.588;2022-10-16T01:22:44;11.63;;;7.07;;
1925;SDS011;964;42.606;23.588;2022-10-16T01:25:22;11.40;;;6.70;;
1925;SDS011;964;42.606;23.588;2022-10-16T01:27:57;17.53;;;6.90;;
1925;SDS011;964;42.606;23.588;2022-10-16T01:30:28;8.80;;;6.30;;
1925;SDS011;964;42.606;23.588;2022-10-16T01:32:59;14.20;;;7.87;;
1925;SDS011;964;42.606;23.588;2022-10-16T01:35:32;14.37;;;7.97;;
1925;SDS011;964;42.606;23.588;2022-10-16T01:38:03;13.07;;;8.60;;
1925;SDS011;964;42.606;23.588;2022-10-16T01:40:34;10.43;;;8.23;;
1925;SDS011;964;42.606;23.588;2022-10-16T01:43:06;13.10;;;7.97;;
1925;SDS011;964;42.606;23.588;2022-10-16T01:45:36;16.50;;;7.73;;
1925;SDS011;964;42.606;23.588;2022-10-16T01:48:04;15.03;;;7.90;;
1925;SDS011;964;42.606;23.588;2022-10-16T01:50:35;10.30;;;6.87;;
1925;SDS011;964;42.606;23.588;2022-10-16T01:53:06;11.50;;;7.40;;
1925;SDS011;964;42.606;23.588;2022-10-16T01:55:36;9.80;;;6.50;;
1925;SDS011;964;42.606;23.588;2022-10-16T01:58:11;15.83;;;9.57;;
1925;SDS011;964;42.606;23.588;2022-10-16T02:00:40;29.00;;;12.80;;
1925;SDS011;964;42.606;23.588;2022-10-16T02:03:10;14.17;;;7.30;;
1925;SDS011;964;42.606;23.588;2022-10-16T02:05:41;22.67;;;11.40;;
1925;SDS011;964;42.606;23.588;2022-10-16T02:08:12;19.87;;;8.90;;
1925;SDS011;964;42.606;23.588;2022-10-16T02:10:39;14.20;;;8.00;;
1925;SDS011;964;42.606;23.588;2022-10-16T02:13:06;11.53;;;7.97;;
1925;SDS011;964;42.606;23.588;2022-10-16T02:15:38;12.37;;;7.80;;
1925;SDS011;964;42.606;23.588;2022-10-16T02:18:05;10.70;;;6.93;;
1925;SDS011;964;42.606;23.588;2022-10-16T02:20:34;7.97;;;6.30;;
1925;SDS011;964;42.606;23.588;2022-10-16T02:23:07;10.27;;;7.30;;
1925;SDS011;964;42.606;23.588;2022-10-16T02:25:40;11.30;;;7.77;;
1925;SDS011;964;42.606;23.588;2022-10-16T02:28:11;11.23;;;7.57;;
1925;SDS011;964;42.606;23.588;2022-10-16T02:30:44;8.20;;;5.63;;
1925;SDS011;964;42.606;23.588;2022-10-16T02:33:15;12.47;;;6.17;;
1925;SDS011;964;42.606;23.588;2022-10-16T02:35:44;6.50;;;5.90;;
1925;SDS011;964;42.606;23.588;2022-10-16T02:38:14;11.70;;;6.60;;
1925;SDS011;964;42.606;23.588;2022-10-16T02:40:42;10.93;;;6.10;;
1925;SDS011;964;42.606;23.588;2022-10-16T02:43:09;8.30;;;6.37;;
1925;SDS011;964;42.606;23.588;2022-10-16T02:45:37;10.37;;;6.37;;
1925;SDS011;964;42.606;23.588;2022-10-16T02:48:06;8.40;;;6.20;;
1925;SDS011;964;42.606;23.588;2022-10-16T02:50:32;10.63;;;6.53;;
1925;SDS011;964;42.606;23.588;2022-10-16T02:52:59;10.23;;;7.10;;
1925;SDS011;964;42.606;23.588;2022-10-16T02:55:26;12.40;;;5.40;;
1925;SDS011;964;42.606;23.588;2022-10-16T02:57:54;11.90;;;7.73;;
1925;SDS011;964;42.606;23.588;2022-10-16T03:00:21;14.97;;;10.27;;
1925;SDS011;964;42.606;23.588;2022-10-16T03:02:47;15.87;;;9.50;;
1925;SDS011;964;42.606;23.588;2022-10-16T03:05:16;8.83;;;7.00;;
1925;SDS011;964;42.606;23.588;2022-10-16T03:07:43;15.57;;;8.97;;
1925;SDS011;964;42.606;23.588;2022-10-16T03:10:10;11.17;;;7.00;;
1925;SDS011;964;42.606;23.588;2022-10-16T03:12:37;12.37;;;7.43;;
1925;SDS011;964;42.606;23.588;2022-10-16T03:15:04;9.90;;;6.63;;
1925;SDS011;964;42.606;23.588;2022-10-16T03:17:32;9.00;;;6.73;;
1925;SDS011;964;42.606;23.588;2022-10-16T03:19:59;9.60;;;6.77;;
1925;SDS011;964;42.606;23.588;2022-10-16T03:22:28;14.07;;;7.50;;
1925;SDS011;964;42.606;23.588;2022-10-16T03:24:54;13.77;;;7.80;;
1925;SDS011;964;42.606;23.588;2022-10-16T03:27:21;13.20;;;9.07;;
1925;SDS011;964;42.606;23.588;2022-10-16T03:29:48;20.50;;;8.57;;
1925;SDS011;964;42.606;23.588;2022-10-16T03:32:15;20.57;;;10.30;;
1925;SDS011;964;42.606;23.588;2022-10-16T03:34:42;15.70;;;8.43;;
1925;SDS011;964;42.606;23.588;2022-10-16T03:37:08;18.00;;;8.50;;
1925;SDS011;964;42.606;23.588;2022-10-16T03:39:37;12.03;;;8.40;;
1925;SDS011;964;42.606;23.588;2022-10-16T03:42:04;12.90;;;8.70;;
1925;SDS011;964;42.606;23.588;2022-10-16T03:44:31;12.40;;;7.23;;
1925;SDS011;964;42.606;23.588;2022-10-16T03:46:58;18.57;;;8.67;;
1925;SDS011;964;42.606;23.588;2022-10-16T03:49:24;15.57;;;8.47;;
1925;SDS011;964;42.606;23.588;2022-10-16T03:51:51;11.07;;;7.70;;
1925;SDS011;964;42.606;23.588;2022-10-16T03:54:21;12.60;;;8.17;;
1925;SDS011;964;42.606;23.588;2022-10-16T03:56:49;11.90;;;8.00;;
1925;SDS011;964;42.606;23.588;2022-10-16T03:59:16;14.80;;;7.10;;
1925;SDS011;964;42.606;23.588;2022-10-16T04:01:43;14.43;;;8.40;;
1925;SDS011;964;42.606;23.588;2022-10-16T04:04:10;11.87;;;8.03;;
1925;SDS011;964;42.606;23.588;2022-10-16T04:06:36;13.30;;;8.90;;
1925;SDS011;964;42.606;23.588;2022-10-16T04:09:03;10.20;;;7.57;;
1925;SDS011;964;42.606;23.588;2022-10-16T04:11:30;14.37;;;7.93;;
1925;SDS011;964;42.606;23.588;2022-10-16T04:13:58;14.30;;;8.20;;
1925;SDS011;964;42.606;23.588;2022-10-16T04:16:25;9.10;;;6.83;;
1925;SDS011;964;42.606;23.588;2022-10-16T04:18:52;9.07;;;6.93;;
1925;SDS011;964;42.606;23.588;2022-10-16T04:21:19;9.60;;;7.00;;
1925;SDS011;964;42.606;23.588;2022-10-16T04:23:46;10.63;;;6.97;;
1925;SDS011;964;42.606;23.588;2022-10-16T04:26:13;12.50;;;7.40;;
1925;SDS011;964;42.606;23.588;2022-10-16T04:28:40;10.10;;;7.20;;
1925;SDS011;964;42.606;23.588;2022-10-16T04:31:08;10.23;;;6.70;;
1925;SDS011;964;42.606;23.588;2022-10-16T04:33:35;10.80;;;7.30;;
1925;SDS011;964;42.606;23.588;2022-10-16T04:36:02;11.13;;;7.27;;
1925;SDS011;964;42.606;23.588;2022-10-16T04:38:29;9.43;;;7.10;;
1925;SDS011;964;42.606;23.588;2022-10-16T04:40:56;9.47;;;6.97;;
1925;SDS011;964;42.606;23.588;2022-10-16T04:43:23;7.93;;;7.00;;
1925;SDS011;964;42.606;23.588;2022-10-16T04:45:50;10.80;;;7.47;;
1925;SDS011;964;42.606;23.588;2022-10-16T04:48:21;12.40;;;7.43;;
1925;SDS011;964;42.606;23.588;2022-10-16T04:50:48;11.83;;;7.17;;
1925;SDS011;964;42.606;23.588;2022-10-16T04:53:15;15.27;;;7.93;;
1925;SDS011;964;42.606;23.588;2022-10-16T04:55:42;10.50;;;7.40;;
1925;SDS011;964;42.606;23.588;2022-10-16T04:58:09;13.20;;;9.00;;
1925;SDS011;964;42.606;23.588;2022-10-16T05:00:36;22.03;;;9.17;;
1925;SDS011;964;42.606;23.588;2022-10-16T05:06:04;14.83;;;8.77;;
1925;SDS011;964;42.606;23.588;2022-10-16T05:08:31;14.00;;;8.90;;
1925;SDS011;964;42.606;23.588;2022-10-16T05:10:58;10.40;;;7.40;;
1925;SDS011;964;42.606;23.588;2022-10-16T05:13:26;11.00;;;7.67;;
1925;SDS011;964;42.606;23.588;2022-10-16T05:16:02;11.30;;;9.00;;
1925;SDS011;964;42.606;23.588;2022-10-16T05:18:29;17.90;;;11.80;;
1925;SDS011;964;42.606;23.588;2022-10-16T05:20:57;17.63;;;10.60;;
1925;SDS011;964;42.606;23.588;2022-10-16T05:23:24;10.60;;;7.70;;
1925;SDS011;964;42.606;23.588;2022-10-16T05:25:54;9.00;;;6.80;;
1925;SDS011;964;42.606;23.588;2022-10-16T05:28:23;10.30;;;7.30;;
1925;SDS011;964;42.606;23.588;2022-10-16T05:30:50;14.90;;;6.90;;
1925;SDS011;964;42.606;23.588;2022-10-16T05:33:19;8.90;;;6.03;;
1925;SDS011;964;42.606;23.588;2022-10-16T05:35:47;8.33;;;6.63;;
1925;SDS011;964;42.606;23.588;2022-10-16T05:38:16;8.23;;;7.43;;
1925;SDS011;964;42.606;23.588;2022-10-16T05:40:43;8.37;;;5.80;;
1925;SDS011;964;42.606;23.588;2022-10-16T05:43:17;6.43;;;5.30;;
1925;SDS011;964;42.606;23.588;2022-10-16T05:45:44;8.23;;;5.57;;
1925;SDS011;964;42.606;23.588;2022-10-16T05:48:19;6.20;;;5.60;;
1925;SDS011;964;42.606;23.588;2022-10-16T05:50:46;6.20;;;5.43;;
1925;SDS011;964;42.606;23.588;2022-10-16T05:53:12;5.73;;;5.13;;
1925;SDS011;964;42.606;23.588;2022-10-16T05:55:40;6.83;;;6.07;;
1925;SDS011;964;42.606;23.588;2022-10-16T05:58:08;6.83;;;5.20;;
1925;SDS011;964;42.606;23.588;2022-10-16T06:00:34;7.80;;;5.23;;
1925;SDS011;964;42.606;23.588;2022-10-16T06:03:01;6.23;;;5.67;;
1925;SDS011;964;42.606;23.588;2022-10-16T06:05:29;6.50;;;5.57;;
1925;SDS011;964;42.606;23.588;2022-10-16T06:07:56;6.00;;;5.50;;
1925;SDS011;964;42.606;23.588;2022-10-16T06:10:23;5.70;;;5.20;;
1925;SDS011;964;42.606;23.588;2022-10-16T06:12:51;7.80;;;6.73;;
1925;SDS011;964;42.606;23.588;2022-10-16T06:15:18;12.93;;;10.40;;
1925;SDS011;964;42.606;23.588;2022-10-16T06:17:45;13.63;;;8.60;;
1925;SDS011;964;42.606;23.588;2022-10-16T06:20:12;28.53;;;17.40;;
1925;SDS011;964;42.606;23.588;2022-10-16T06:22:39;28.00;;;16.40;;
1925;SDS011;964;42.606;23.588;2022-10-16T06:25:06;31.77;;;20.60;;
1925;SDS011;964;42.606;23.588;2022-10-16T06:27:33;34.87;;;21.80;;
1925;SDS011;964;42.606;23.588;2022-10-16T06:30:04;28.40;;;19.40;;
1925;SDS011;964;42.606;23.588;2022-10-16T06:32:32;30.17;;;19.10;;
1925;SDS011;964;42.606;23.588;2022-10-16T06:34:59;28.03;;;17.70;;
1925;SDS011;964;42.606;23.588;2022-10-16T06:37:26;16.03;;;11.70;;
1925;SDS011;964;42.606;23.588;2022-10-16T06:39:53;19.23;;;13.60;;
1925;SDS011;964;42.606;23.588;2022-10-16T06:42:20;20.43;;;12.30;;
1925;SDS011;964;42.606;23.588;2022-10-16T06:44:47;13.43;;;11.60;;
1925;SDS011;964;42.606;23.588;2022-10-16T06:47:15;16.90;;;9.97;;
1925;SDS011;964;42.606;23.588;2022-10-16T06:49:42;10.53;;;8.77;;
1925;SDS011;964;42.606;23.588;2022-10-16T06:52:09;9.10;;;7.80;;
1925;SDS011;964;42.606;23.588;2022-10-16T06:54:35;9.13;;;8.03;;
1925;SDS011;964;42.606;23.588;2022-10-16T06:57:02;10.03;;;6.97;;
1925;SDS011;964;42.606;23.588;2022-10-16T06:59:29;12.13;;;7.57;;
1925;SDS011;964;42.606;23.588;2022-10-16T07:01:56;10.23;;;6.63;;
1925;SDS011;964;42.606;23.588;2022-10-16T07:04:24;11.97;;;7.17;;
1925;SDS011;964;42.606;23.588;2022-10-16T07:06:51;9.23;;;6.93;;
1925;SDS011;964;42.606;23.588;2022-10-16T07:09:18;9.90;;;7.37;;
1925;SDS011;964;42.606;23.588;2022-10-16T07:11:44;8.07;;;7.27;;
1925;SDS011;964;42.606;23.588;2022-10-16T07:14:12;8.43;;;7.53;;
1925;SDS011;964;42.606;23.588;2022-10-16T07:16:42;7.40;;;6.70;;
1925;SDS011;964;42.606;23.588;2022-10-16T07:19:09;8.10;;;7.03;;
1925;SDS011;964;42.606;23.588;2022-10-16T07:21:39;9.23;;;7.83;;
1925;SDS011;964;42.606;23.588;2022-10-16T07:24:10;7.73;;;6.93;;
1925;SDS011;964;42.606;23.588;2022-10-16T07:26:38;8.53;;;7.73;;
1925;SDS011;964;42.606;23.588;2022-10-16T07:29:06;12.97;;;7.70;;
1925;SDS011;964;42.606;23.588;2022-10-16T07:31:33;10.27;;;7.87;;
1925;SDS011;964;42.606;23.588;2022-10-16T07:34:00;10.37;;;8.13;;
1925;SDS011;964;42.606;23.588;2022-10-16T07:36:27;12.50;;;10.40;;
1925;SDS011;964;42.606;23.588;2022-10-16T07:38:55;11.63;;;9.13;;
1925;SDS011;964;42.606;23.588;2022-10-16T07:41:22;9.43;;;6.90;;
1925;SDS011;964;42.606;23.588;2022-10-16T07:43:50;8.07;;;6.90;;
1925;SDS011;964;42.606;23.588;2022-10-16T07:46:18;9.43;;;6.60;;
1925;SDS011;964;42.606;23.588;2022-10-16T07:48:46;10.30;;;7.67;;
1925;SDS011;964;42.606;23.588;2022-10-16T07:51:14;8.00;;;7.20;;
1925;SDS011;964;42.606;23.588;2022-10-16T07:53:42;8.57;;;7.07;;
1925;SDS011;964;42.606;23.588;2022-10-16T07:56:11;8.83;;;7.17;;
1925;SDS011;964;42.606;23.588;2022-10-16T07:58:38;8.00;;;6.10;;
1925;SDS011;964;42.606;23.588;2022-10-16T08:01:06;6.40;;;5.80;;
1925;SDS011;964;42.606;23.588;2022-10-16T08:03:35;6.07;;;5.50;;
1925;SDS011;964;42.606;23.588;2022-10-16T08:06:02;5.97;;;5.47;;
1925;SDS011;964;42.606;23.588;2022-10-16T08:08:30;6.50;;;6.00;;
1925;SDS011;964;42.606;23.588;2022-10-16T08:10:57;6.50;;;5.00;;
1925;SDS011;964;42.606;23.588;2022-10-16T08:13:25;5.57;;;5.07;;
1925;SDS011;964;42.606;23.588;2022-10-16T08:15:53;5.87;;;5.37;;
1925;SDS011;964;42.606;23.588;2022-10-16T08:18:20;6.50;;;5.87;;
1925;SDS011;964;42.606;23.588;2022-10-16T08:20:47;6.13;;;5.53;;
1925;SDS011;964;42.606;23.588;2022-10-16T08:23:14;6.40;;;5.80;;
1925;SDS011;964;42.606;23.588;2022-10-16T08:25:40;8.10;;;5.30;;
1925;SDS011;964;42.606;23.588;2022-10-16T08:28:09;6.83;;;5.40;;
1925;SDS011;964;42.606;23.588;2022-10-16T08:30:38;5.70;;;5.10;;
1925;SDS011;964;42.606;23.588;2022-10-16T08:33:05;6.20;;;5.60;;
1925;SDS011;964;42.606;23.588;2022-10-16T08:35:32;6.50;;;5.03;;
1925;SDS011;964;42.606;23.588;2022-10-16T08:37:59;5.87;;;5.37;;
1925;SDS011;964;42.606;23.588;2022-10-16T08:40:26;8.10;;;5.43;;
1925;SDS011;964;42.606;23.588;2022-10-16T08:43:00;7.10;;;5.73;;
1925;SDS011;964;42.606;23.588;2022-10-16T08:45:43;7.87;;;4.80;;
1925;SDS011;964;42.606;23.588;2022-10-16T08:48:17;5.93;;;5.40;;
1925;SDS011;964;42.606;23.588;2022-10-16T08:50:49;7.13;;;5.43;;
1925;SDS011;964;42.606;23.588;2022-10-16T08:53:18;4.70;;;4.30;;
1925;SDS011;964;42.606;23.588;2022-10-16T08:55:51;6.30;;;4.80;;
1925;SDS011;964;42.606;23.588;2022-10-16T08:58:19;5.00;;;4.60;;
1925;SDS011;964;42.606;23.588;2022-10-16T09:00:50;6.33;;;4.40;;
1925;SDS011;964;42.606;23.588;2022-10-16T09:03:25;5.43;;;4.93;;
1925;SDS011;964;42.606;23.588;2022-10-16T09:06:08;5.20;;;4.67;;
1925;SDS011;964;42.606;23.588;2022-10-16T09:08:44;5.23;;;4.77;;
1925;SDS011;964;42.606;23.588;2022-10-16T09:11:20;4.80;;;4.40;;
1925;SDS011;964;42.606;23.588;2022-10-16T09:13:59;6.73;;;5.37;;
1925;SDS011;964;42.606;23.588;2022-10-16T09:16:32;5.40;;;4.90;;
1925;SDS011;964;42.606;23.588;2022-10-16T09:19:04;4.63;;;4.13;;
1925;SDS011;964;42.606;23.588;2022-10-16T09:21:41;4.67;;;4.20;;
1925;SDS011;964;42.606;23.588;2022-10-16T09:24:11;5.43;;;4.50;;
1925;SDS011;964;42.606;23.588;2022-10-16T09:26:40;5.30;;;4.60;;
1925;SDS011;964;42.606;23.588;2022-10-16T09:29:08;5.43;;;4.80;;
1925;SDS011;964;42.606;23.588;2022-10-16T09:31:39;7.70;;;4.83;;
1925;SDS011;964;42.606;23.588;2022-10-16T09:34:08;5.47;;;4.40;;
1925;SDS011;964;42.606;23.588;2022-10-16T09:36:47;4.40;;;4.00;;
1925;SDS011;964;42.606;23.588;2022-10-16T09:39:14;5.40;;;5.00;;
1925;SDS011;964;42.606;23.588;2022-10-16T09:41:41;4.30;;;3.90;;
1925;SDS011;964;42.606;23.588;2022-10-16T09:44:18;4.37;;;4.07;;
1925;SDS011;964;42.606;23.588;2022-10-16T09:47:00;4.30;;;4.00;;
1925;SDS011;964;42.606;23.588;2022-10-16T09:49:27;5.23;;;4.33;;
1925;SDS011;964;42.606;23.588;2022-10-16T09:52:02;5.20;;;4.70;;
1925;SDS011;964;42.606;23.588;2022-10-16T09:54:30;5.17;;;4.67;;
1925;SDS011;964;42.606;23.588;2022-10-16T09:57:03;4.37;;;4.00;;
1925;SDS011;964;42.606;23.588;2022-10-16T09:59:31;6.70;;;4.80;;
1925;SDS011;964;42.606;23.588;2022-10-16T10:02:00;4.87;;;4.43;;
1925;SDS011;964;42.606;23.588;2022-10-16T10:04:37;5.83;;;3.90;;
1925;SDS011;964;42.606;23.588;2022-10-16T10:07:06;6.23;;;4.60;;
1925;SDS011;964;42.606;23.588;2022-10-16T10:09:45;4.83;;;4.43;;
1925;SDS011;964;42.606;23.588;2022-10-16T10:12:17;7.10;;;4.13;;
1925;SDS011;964;42.606;23.588;2022-10-16T10:14:46;7.23;;;4.27;;
1925;SDS011;964;42.606;23.588;2022-10-16T10:17:17;4.80;;;4.30;;
1925;SDS011;964;42.606;23.588;2022-10-16T10:19:49;4.70;;;4.27;;
1925;SDS011;964;42.606;23.588;2022-10-16T10:22:19;4.67;;;4.27;;
1925;SDS011;964;42.606;23.588;2022-10-16T10:28:07;4.60;;;4.20;;
1925;SDS011;964;42.606;23.588;2022-10-16T10:30:44;6.50;;;3.77;;
1925;SDS011;964;42.606;23.588;2022-10-16T10:33:25;4.13;;;3.73;;
1925;SDS011;964;42.606;23.588;2022-10-16T10:36:00;4.60;;;3.57;;
1925;SDS011;964;42.606;23.588;2022-10-16T10:38:39;5.00;;;3.33;;
1925;SDS011;964;42.606;23.588;2022-10-16T10:41:20;4.70;;;4.07;;
1925;SDS011;964;42.606;23.588;2022-10-16T10:44:06;4.90;;;3.57;;
1925;SDS011;964;42.606;23.588;2022-10-16T10:46:41;3.83;;;3.53;;
1925;SDS011;964;42.606;23.588;2022-10-16T10:49:28;4.10;;;3.80;;
1925;SDS011;964;42.606;23.588;2022-10-16T10:52:11;5.43;;;3.97;;
1925;SDS011;964;42.606;23.588;2022-10-16T10:54:51;4.70;;;3.80;;
1925;SDS011;964;42.606;23.588;2022-10-16T10:57:25;4.20;;;3.80;;
1925;SDS011;964;42.606;23.588;2022-10-16T11:02:48;3.77;;;3.23;;
1925;SDS011;964;42.606;23.588;2022-10-16T11:05:35;6.40;;;4.00;;
1925;SDS011;964;42.606;23.588;2022-10-16T11:08:08;3.53;;;3.23;;
1925;SDS011;964;42.606;23.588;2022-10-16T11:10:42;5.70;;;3.37;;
1925;SDS011;964;42.606;23.588;2022-10-16T11:13:16;3.60;;;3.30;;
1925;SDS011;964;42.606;23.588;2022-10-16T11:15:50;4.70;;;3.70;;
1925;SDS011;964;42.606;23.588;2022-10-16T11:18:24;3.70;;;3.40;;
1925;SDS011;964;42.606;23.588;2022-10-16T11:21:03;3.87;;;3.53;;
1925;SDS011;964;42.606;23.588;2022-10-16T11:23:35;5.70;;;3.50;;
1925;SDS011;964;42.606;23.588;2022-10-16T11:26:11;3.50;;;3.20;;
1925;SDS011;964;42.606;23.588;2022-10-16T11:28:43;3.90;;;3.50;;
1925;SDS011;964;42.606;23.588;2022-10-16T11:31:14;4.00;;;3.60;;
1925;SDS011;964;42.606;23.588;2022-10-16T11:33:46;4.97;;;3.60;;
1925;SDS011;964;42.606;23.588;2022-10-16T11:36:19;3.30;;;3.00;;
1925;SDS011;964;42.606;23.588;2022-10-16T11:38:52;3.37;;;3.07;;
1925;SDS011;964;42.606;23.588;2022-10-16T11:41:27;4.10;;;3.70;;
1925;SDS011;964;42.606;23.588;2022-10-16T11:44:15;4.50;;;3.20;;
1925;SDS011;964;42.606;23.588;2022-10-16T11:47:08;3.30;;;3.00;;
1925;SDS011;964;42.606;23.588;2022-10-16T11:49:41;3.00;;;2.80;;
1925;SDS011;964;42.606;23.588;2022-10-16T11:52:13;4.03;;;2.63;;
1925;SDS011;964;42.606;23.588;2022-10-16T11:54:47;3.10;;;2.80;;
1925;SDS011;964;42.606;23.588;2022-10-16T11:57:19;2.93;;;2.73;;
1925;SDS011;964;42.606;23.588;2022-10-16T11:59:50;4.00;;;3.60;;
1925;SDS011;964;42.606;23.588;2022-10-16T12:02:33;3.63;;;2.70;;
1925;SDS011;964;42.606;23.588;2022-10-16T12:05:18;3.20;;;2.90;;
1925;SDS011;964;42.606;23.588;2022-10-16T12:07:54;2.97;;;2.60;;
1925;SDS011;964;42.606;23.588;2022-10-16T12:10:28;4.07;;;2.97;;
1925;SDS011;964;42.606;23.588;2022-10-16T12:12:57;3.80;;;2.60;;
1925;SDS011;964;42.606;23.588;2022-10-16T12:15:24;4.43;;;2.90;;
1925;SDS011;964;42.606;23.588;2022-10-16T12:17:53;2.93;;;2.73;;
1925;SDS011;964;42.606;23.588;2022-10-16T12:20:25;3.83;;;2.73;;
1925;SDS011;964;42.606;23.588;2022-10-16T12:22:57;2.67;;;2.43;;
1925;SDS011;964;42.606;23.588;2022-10-16T12:25:26;2.67;;;2.47;;
1925;SDS011;964;42.606;23.588;2022-10-16T12:28:00;2.67;;;2.47;;
1925;SDS011;964;42.606;23.588;2022-10-16T12:30:29;2.70;;;2.43;;
1925;SDS011;964;42.606;23.588;2022-10-16T12:32:58;4.70;;;2.40;;
1925;SDS011;964;42.606;23.588;2022-10-16T12:35:28;3.10;;;2.90;;
1925;SDS011;964;42.606;23.588;2022-10-16T12:38:06;4.13;;;2.90;;
1925;SDS011;964;42.606;23.588;2022-10-16T12:40:39;3.90;;;3.50;;
1925;SDS011;964;42.606;23.588;2022-10-16T12:43:13;5.40;;;2.30;;
1925;SDS011;964;42.606;23.588;2022-10-16T12:46:02;2.40;;;2.20;;
1925;SDS011;964;42.606;23.588;2022-10-16T12:48:31;2.60;;;2.00;;
1925;SDS011;964;42.606;23.588;2022-10-16T12:51:09;2.50;;;2.30;;
1925;SDS011;964;42.606;23.588;2022-10-16T12:53:38;2.70;;;2.50;;
1925;SDS011;964;42.606;23.588;2022-10-16T12:56:08;2.77;;;2.47;;
1925;SDS011;964;42.606;23.588;2022-10-16T12:58:44;2.20;;;2.00;;
1925;SDS011;964;42.606;23.588;2022-10-16T13:01:25;2.63;;;2.43;;
1925;SDS011;964;42.606;23.588;2022-10-16T13:06:55;2.40;;;2.20;;
1925;SDS011;964;42.606;23.588;2022-10-16T13:09:33;5.03;;;2.03;;
1925;SDS011;964;42.606;23.588;2022-10-16T13:15:11;2.73;;;2.53;;
1925;SDS011;964;42.606;23.588;2022-10-16T13:17:50;2.07;;;1.87;;
1925;SDS011;964;42.606;23.588;2022-10-16T13:20:27;2.47;;;2.00;;
1925;SDS011;964;42.606;23.588;2022-10-16T13:23:03;2.70;;;2.50;;
1925;SDS011;964;42.606;23.588;2022-10-16T13:25:43;2.57;;;2.37;;
1925;SDS011;964;42.606;23.588;2022-10-16T13:28:21;3.77;;;2.73;;
1925;SDS011;964;42.606;23.588;2022-10-16T13:30:54;2.77;;;2.57;;
1925;SDS011;964;42.606;23.588;2022-10-16T13:33:25;4.37;;;2.60;;
1925;SDS011;964;42.606;23.588;2022-10-16T13:35:57;3.23;;;2.70;;
1925;SDS011;964;42.606;23.588;2022-10-16T13:38:25;3.07;;;2.77;;
1925;SDS011;964;42.606;23.588;2022-10-16T13:40:55;4.30;;;2.70;;
1925;SDS011;964;42.606;23.588;2022-10-16T13:43:25;2.70;;;2.40;;
1925;SDS011;964;42.606;23.588;2022-10-16T13:45:56;3.53;;;2.27;;
1925;SDS011;964;42.606;23.588;2022-10-16T13:48:24;3.33;;;2.80;;
1925;SDS011;964;42.606;23.588;2022-10-16T13:50:58;5.20;;;3.17;;
1925;SDS011;964;42.606;23.588;2022-10-16T13:53:25;4.07;;;3.37;;
1925;SDS011;964;42.606;23.588;2022-10-16T13:55:52;4.63;;;3.17;;
1925;SDS011;964;42.606;23.588;2022-10-16T13:58:20;3.63;;;2.90;;
1925;SDS011;964;42.606;23.588;2022-10-16T14:00:53;2.70;;;2.50;;
1925;SDS011;964;42.606;23.588;2022-10-16T14:03:22;2.93;;;2.73;;
1925;SDS011;964;42.606;23.588;2022-10-16T14:05:51;3.10;;;2.90;;
1925;SDS011;964;42.606;23.588;2022-10-16T14:08:20;2.93;;;2.73;;
1925;SDS011;964;42.606;23.588;2022-10-16T14:10:49;3.30;;;3.00;;
1925;SDS011;964;42.606;23.588;2022-10-16T14:13:18;4.07;;;3.30;;
1925;SDS011;964;42.606;23.588;2022-10-16T14:15:50;4.37;;;3.47;;
1925;SDS011;964;42.606;23.588;2022-10-16T14:18:20;4.70;;;3.70;;
1925;SDS011;964;42.606;23.588;2022-10-16T14:20:49;4.33;;;3.50;;
1925;SDS011;964;42.606;23.588;2022-10-16T14:23:19;8.53;;;4.10;;
1925;SDS011;964;42.606;23.588;2022-10-16T14:25:48;3.80;;;3.03;;
1925;SDS011;964;42.606;23.588;2022-10-16T14:28:16;6.50;;;3.03;;
1925;SDS011;964;42.606;23.588;2022-10-16T14:30:52;3.37;;;3.00;;
1925;SDS011;964;42.606;23.588;2022-10-16T14:33:21;4.73;;;3.50;;
1925;SDS011;964;42.606;23.588;2022-10-16T14:36:00;3.37;;;3.07;;
1925;SDS011;964;42.606;23.588;2022-10-16T14:38:29;4.73;;;3.23;;
1925;SDS011;964;42.606;23.588;2022-10-16T14:40:57;5.70;;;3.97;;
1925;SDS011;964;42.606;23.588;2022-10-16T14:43:28;5.00;;;3.53;;
1925;SDS011;964;42.606;23.588;2022-10-16T14:46:01;5.97;;;2.97;;
1925;SDS011;964;42.606;23.588;2022-10-16T14:48:29;6.80;;;4.70;;
1925;SDS011;964;42.606;23.588;2022-10-16T14:50:56;44.13;;;25.10;;
1925;SDS011;964;42.606;23.588;2022-10-16T14:53:23;40.53;;;22.03;;
1925;SDS011;964;42.606;23.588;2022-10-16T14:55:50;19.57;;;12.50;;
1925;SDS011;964;42.606;23.588;2022-10-16T14:58:18;19.60;;;13.20;;
1925;SDS011;964;42.606;23.588;2022-10-16T15:00:47;28.40;;;18.07;;
1925;SDS011;964;42.606;23.588;2022-10-16T15:03:16;33.07;;;20.30;;
1925;SDS011;964;42.606;23.588;2022-10-16T15:05:43;33.40;;;22.27;;
1925;SDS011;964;42.606;23.588;2022-10-16T15:08:09;22.77;;;15.07;;
1925;SDS011;964;42.606;23.588;2022-10-16T15:10:38;19.30;;;9.63;;
1925;SDS011;964;42.606;23.588;2022-10-16T15:13:09;15.93;;;10.13;;
1925;SDS011;964;42.606;23.588;2022-10-16T15:15:40;17.77;;;8.27;;
1925;SDS011;964;42.606;23.588;2022-10-16T15:18:08;17.17;;;7.93;;
1925;SDS011;964;42.606;23.588;2022-10-16T15:20:37;23.70;;;10.67;;
1925;SDS011;964;42.606;23.588;2022-10-16T15:23:06;18.57;;;8.40;;
1925;SDS011;964;42.606;23.588;2022-10-16T15:25:41;19.40;;;7.80;;
1925;SDS011;964;42.606;23.588;2022-10-16T15:28:09;13.50;;;8.03;;
1925;SDS011;964;42.606;23.588;2022-10-16T15:30:37;11.10;;;5.40;;
1925;SDS011;964;42.606;23.588;2022-10-16T15:33:08;12.83;;;5.60;;
1925;SDS011;964;42.606;23.588;2022-10-16T15:35:40;9.37;;;5.80;;
1925;SDS011;964;42.606;23.588;2022-10-16T15:38:08;21.13;;;7.33;;
1925;SDS011;964;42.606;23.588;2022-10-16T15:40:38;9.20;;;5.53;;
1925;SDS011;964;42.606;23.588;2022-10-16T15:43:06;7.50;;;5.20;;
1925;SDS011;964;42.606;23.588;2022-10-16T15:45:33;5.43;;;4.10;;